CPM5 weather

Volk Airport
Tottenham, Ontario, Canada

Public forecast

Using degrees Celsius for public forecast. Weather courtesy of forecast.io.

Closest aviation weather report (METAR) to Volk Airport

Closest report is CFB Borden, 17.7 nm (32.7 km) NNW. Retrieved 2019/10/20 21:00 UTC (12 minutes ago):

CYBN 202100Z AUTO 14007KT 9SM FEW098 18/08 A2988 RMK SLP124

Closest aviation forecast (TAF) to Volk Airport

Forecast is more than 12 hours old.

Closest forecast is CFB Borden, 17.7 nm (32.7 km) NNW. Retrieved 2019/10/18 18:33 UTC (2 days ago):

TAF TAF CYBN 181730Z 1818/1906 33010KT P6SM BKN020 BECMG 1818/1819 SCT025 SCT240 BECMG 1823/1901 VRB03KT RMK FCST BASED ON AUTO OBS NXT FCST BY 190000Z